sensor_id;sensor_type;location;lat;lon;timestamp;P1;durP1;ratioP1;P2;durP2;ratioP2
9809;SDS011;4944;52.514;13.192;2023-07-31T00:02:26;1.70;;;1.23;;
9809;SDS011;4944;52.514;13.192;2023-07-31T00:04:53;2.83;;;1.40;;
9809;SDS011;4944;52.514;13.192;2023-07-31T00:07:22;2.97;;;1.60;;
9809;SDS011;4944;52.514;13.192;2023-07-31T00:09:48;2.93;;;1.40;;
9809;SDS011;4944;52.514;13.192;2023-07-31T00:12:15;2.70;;;1.50;;
9809;SDS011;4944;52.514;13.192;2023-07-31T00:14:42;1.87;;;1.27;;
9809;SDS011;4944;52.514;13.192;2023-07-31T00:17:09;2.97;;;1.30;;
9809;SDS011;4944;52.514;13.192;2023-07-31T00:19:36;3.00;;;1.40;;
9809;SDS011;4944;52.514;13.192;2023-07-31T00:22:03;2.00;;;1.27;;
9809;SDS011;4944;52.514;13.192;2023-07-31T00:24:32;2.03;;;1.30;;
9809;SDS011;4944;52.514;13.192;2023-07-31T00:26:58;1.70;;;1.40;;
9809;SDS011;4944;52.514;13.192;2023-07-31T00:29:25;1.77;;;1.40;;
9809;SDS011;4944;52.514;13.192;2023-07-31T00:31:52;1.50;;;1.40;;
9809;SDS011;4944;52.514;13.192;2023-07-31T00:34:19;2.70;;;1.63;;
9809;SDS011;4944;52.514;13.192;2023-07-31T00:36:46;2.27;;;1.73;;
9809;SDS011;4944;52.514;13.192;2023-07-31T00:39:13;3.07;;;1.70;;
9809;SDS011;4944;52.514;13.192;2023-07-31T00:41:41;2.00;;;1.60;;
9809;SDS011;4944;52.514;13.192;2023-07-31T00:44:08;4.17;;;1.70;;
9809;SDS011;4944;52.514;13.192;2023-07-31T00:46:35;3.57;;;1.60;;
9809;SDS011;4944;52.514;13.192;2023-07-31T00:49:02;1.97;;;1.40;;
9809;SDS011;4944;52.514;13.192;2023-07-31T00:51:30;2.80;;;1.60;;
9809;SDS011;4944;52.514;13.192;2023-07-31T00:53:56;1.87;;;1.60;;
9809;SDS011;4944;52.514;13.192;2023-07-31T00:56:23;2.67;;;1.53;;
9809;SDS011;4944;52.514;13.192;2023-07-31T00:58:51;3.43;;;2.07;;
9809;SDS011;4944;52.514;13.192;2023-07-31T01:01:18;2.37;;;1.70;;
9809;SDS011;4944;52.514;13.192;2023-07-31T01:03:45;3.43;;;1.80;;
9809;SDS011;4944;52.514;13.192;2023-07-31T01:06:14;1.67;;;1.27;;
9809;SDS011;4944;52.514;13.192;2023-07-31T01:08:48;2.83;;;1.57;;
9809;SDS011;4944;52.514;13.192;2023-07-31T01:11:21;2.60;;;1.67;;
9809;SDS011;4944;52.514;13.192;2023-07-31T01:13:56;3.00;;;1.80;;
9809;SDS011;4944;52.514;13.192;2023-07-31T01:16:24;4.53;;;1.70;;
9809;SDS011;4944;52.514;13.192;2023-07-31T01:18:51;2.60;;;2.00;;
9809;SDS011;4944;52.514;13.192;2023-07-31T01:21:21;3.83;;;2.20;;
9809;SDS011;4944;52.514;13.192;2023-07-31T01:24:14;3.77;;;1.87;;
9809;SDS011;4944;52.514;13.192;2023-07-31T01:26:51;1.60;;;1.50;;
9809;SDS011;4944;52.514;13.192;2023-07-31T01:29:23;2.67;;;1.83;;
9809;SDS011;4944;52.514;13.192;2023-07-31T01:31:59;2.27;;;2.00;;
9809;SDS011;4944;52.514;13.192;2023-07-31T01:34:28;1.90;;;1.80;;
9809;SDS011;4944;52.514;13.192;2023-07-31T01:36:56;2.30;;;1.87;;
9809;SDS011;4944;52.514;13.192;2023-07-31T01:39:24;3.17;;;1.93;;
9809;SDS011;4944;52.514;13.192;2023-07-31T01:41:52;2.43;;;1.70;;
9809;SDS011;4944;52.514;13.192;2023-07-31T01:44:19;1.93;;;1.80;;
9809;SDS011;4944;52.514;13.192;2023-07-31T01:46:46;2.37;;;1.70;;
9809;SDS011;4944;52.514;13.192;2023-07-31T01:49:13;2.57;;;1.70;;
9809;SDS011;4944;52.514;13.192;2023-07-31T01:51:39;2.77;;;1.80;;
9809;SDS011;4944;52.514;13.192;2023-07-31T01:54:06;1.93;;;1.53;;
9809;SDS011;4944;52.514;13.192;2023-07-31T01:56:33;3.27;;;1.43;;
9809;SDS011;4944;52.514;13.192;2023-07-31T01:59:01;1.70;;;1.40;;
9809;SDS011;4944;52.514;13.192;2023-07-31T02:01:28;2.67;;;1.80;;
9809;SDS011;4944;52.514;13.192;2023-07-31T02:03:55;2.07;;;1.70;;
9809;SDS011;4944;52.514;13.192;2023-07-31T02:06:22;3.03;;;1.50;;
9809;SDS011;4944;52.514;13.192;2023-07-31T02:08:49;1.87;;;1.70;;
9809;SDS011;4944;52.514;13.192;2023-07-31T02:11:16;1.63;;;1.53;;
9809;SDS011;4944;52.514;13.192;2023-07-31T02:13:43;4.33;;;1.83;;
9809;SDS011;4944;52.514;13.192;2023-07-31T02:16:11;2.17;;;1.80;;
9809;SDS011;4944;52.514;13.192;2023-07-31T02:18:38;2.63;;;1.80;;
9809;SDS011;4944;52.514;13.192;2023-07-31T02:21:05;4.20;;;2.00;;
9809;SDS011;4944;52.514;13.192;2023-07-31T02:23:32;2.03;;;1.93;;
9809;SDS011;4944;52.514;13.192;2023-07-31T02:25:59;2.67;;;1.60;;
9809;SDS011;4944;52.514;13.192;2023-07-31T02:28:25;3.13;;;1.80;;
9809;SDS011;4944;52.514;13.192;2023-07-31T02:30:52;4.80;;;2.07;;
9809;SDS011;4944;52.514;13.192;2023-07-31T02:33:20;2.13;;;1.93;;
9809;SDS011;4944;52.514;13.192;2023-07-31T02:35:47;2.47;;;2.03;;
9809;SDS011;4944;52.514;13.192;2023-07-31T02:38:14;3.50;;;1.90;;
9809;SDS011;4944;52.514;13.192;2023-07-31T02:40:41;5.00;;;1.90;;
9809;SDS011;4944;52.514;13.192;2023-07-31T02:43:09;2.67;;;2.13;;
9809;SDS011;4944;52.514;13.192;2023-07-31T02:45:36;3.77;;;2.13;;
9809;SDS011;4944;52.514;13.192;2023-07-31T02:48:03;2.47;;;2.07;;
9809;SDS011;4944;52.514;13.192;2023-07-31T02:50:31;2.33;;;2.13;;
9809;SDS011;4944;52.514;13.192;2023-07-31T02:52:59;4.23;;;2.20;;
9809;SDS011;4944;52.514;13.192;2023-07-31T02:55:26;3.53;;;2.27;;
9809;SDS011;4944;52.514;13.192;2023-07-31T02:57:52;5.17;;;2.43;;
9809;SDS011;4944;52.514;13.192;2023-07-31T03:00:19;4.00;;;2.30;;
9809;SDS011;4944;52.514;13.192;2023-07-31T03:02:46;3.23;;;2.30;;
9809;SDS011;4944;52.514;13.192;2023-07-31T03:05:13;5.27;;;2.40;;
9809;SDS011;4944;52.514;13.192;2023-07-31T03:07:42;2.40;;;2.30;;
9809;SDS011;4944;52.514;13.192;2023-07-31T03:10:09;3.70;;;2.60;;
9809;SDS011;4944;52.514;13.192;2023-07-31T03:12:35;4.77;;;3.17;;
9809;SDS011;4944;52.514;13.192;2023-07-31T03:15:03;4.43;;;2.70;;
9809;SDS011;4944;52.514;13.192;2023-07-31T03:17:30;4.43;;;2.90;;
9809;SDS011;4944;52.514;13.192;2023-07-31T03:19:57;8.23;;;2.60;;
9809;SDS011;4944;52.514;13.192;2023-07-31T03:22:24;3.03;;;2.70;;
9809;SDS011;4944;52.514;13.192;2023-07-31T03:24:52;3.80;;;2.47;;
9809;SDS011;4944;52.514;13.192;2023-07-31T03:27:19;2.87;;;2.70;;
9809;SDS011;4944;52.514;13.192;2023-07-31T03:29:46;3.00;;;2.60;;
9809;SDS011;4944;52.514;13.192;2023-07-31T03:32:14;3.60;;;2.77;;
9809;SDS011;4944;52.514;13.192;2023-07-31T03:34:41;3.33;;;2.50;;
9809;SDS011;4944;52.514;13.192;2023-07-31T03:37:08;4.50;;;2.50;;
9809;SDS011;4944;52.514;13.192;2023-07-31T03:39:35;5.37;;;2.70;;
9809;SDS011;4944;52.514;13.192;2023-07-31T03:42:04;4.07;;;2.70;;
9809;SDS011;4944;52.514;13.192;2023-07-31T03:44:31;5.27;;;3.00;;
9809;SDS011;4944;52.514;13.192;2023-07-31T03:46:58;2.97;;;2.67;;
9809;SDS011;4944;52.514;13.192;2023-07-31T03:49:25;3.93;;;2.57;;
9809;SDS011;4944;52.514;13.192;2023-07-31T03:51:51;6.10;;;3.20;;
9809;SDS011;4944;52.514;13.192;2023-07-31T03:54:20;3.10;;;2.80;;
9809;SDS011;4944;52.514;13.192;2023-07-31T03:56:46;4.20;;;2.67;;
9809;SDS011;4944;52.514;13.192;2023-07-31T03:59:15;2.97;;;2.60;;
9809;SDS011;4944;52.514;13.192;2023-07-31T04:01:42;6.23;;;3.70;;
9809;SDS011;4944;52.514;13.192;2023-07-31T04:04:08;5.57;;;3.03;;
9809;SDS011;4944;52.514;13.192;2023-07-31T04:06:35;7.00;;;3.43;;
9809;SDS011;4944;52.514;13.192;2023-07-31T04:09:02;3.80;;;3.20;;
9809;SDS011;4944;52.514;13.192;2023-07-31T04:11:29;3.60;;;2.80;;
9809;SDS011;4944;52.514;13.192;2023-07-31T04:13:56;4.40;;;2.90;;
9809;SDS011;4944;52.514;13.192;2023-07-31T04:16:24;3.30;;;3.03;;
9809;SDS011;4944;52.514;13.192;2023-07-31T04:18:51;4.63;;;2.77;;
9809;SDS011;4944;52.514;13.192;2023-07-31T04:21:18;3.13;;;2.90;;
9809;SDS011;4944;52.514;13.192;2023-07-31T04:23:45;2.80;;;2.60;;
9809;SDS011;4944;52.514;13.192;2023-07-31T04:26:12;5.93;;;3.10;;
9809;SDS011;4944;52.514;13.192;2023-07-31T04:28:38;3.83;;;2.67;;
9809;SDS011;4944;52.514;13.192;2023-07-31T04:31:05;5.17;;;3.00;;
9809;SDS011;4944;52.514;13.192;2023-07-31T04:33:34;6.37;;;3.03;;
9809;SDS011;4944;52.514;13.192;2023-07-31T04:36:00;4.50;;;3.10;;
9809;SDS011;4944;52.514;13.192;2023-07-31T04:38:27;6.10;;;3.03;;
9809;SDS011;4944;52.514;13.192;2023-07-31T04:40:54;6.87;;;2.63;;
9809;SDS011;4944;52.514;13.192;2023-07-31T04:43:21;3.20;;;2.80;;
9809;SDS011;4944;52.514;13.192;2023-07-31T04:45:48;6.67;;;2.87;;
9809;SDS011;4944;52.514;13.192;2023-07-31T04:48:15;4.87;;;2.60;;
9809;SDS011;4944;52.514;13.192;2023-07-31T04:50:43;5.10;;;2.57;;
9809;SDS011;4944;52.514;13.192;2023-07-31T04:53:10;3.70;;;2.50;;
9809;SDS011;4944;52.514;13.192;2023-07-31T04:55:37;4.10;;;2.90;;
9809;SDS011;4944;52.514;13.192;2023-07-31T04:58:04;4.63;;;3.03;;
9809;SDS011;4944;52.514;13.192;2023-07-31T05:00:31;4.87;;;3.03;;
9809;SDS011;4944;52.514;13.192;2023-07-31T05:02:58;4.23;;;2.87;;
9809;SDS011;4944;52.514;13.192;2023-07-31T05:05:25;4.33;;;2.80;;
9809;SDS011;4944;52.514;13.192;2023-07-31T05:07:53;5.43;;;3.17;;
9809;SDS011;4944;52.514;13.192;2023-07-31T05:10:20;4.60;;;2.70;;
9809;SDS011;4944;52.514;13.192;2023-07-31T05:12:46;3.63;;;2.37;;
9809;SDS011;4944;52.514;13.192;2023-07-31T05:15:13;4.90;;;2.70;;
9809;SDS011;4944;52.514;13.192;2023-07-31T05:17:40;4.07;;;2.50;;
9809;SDS011;4944;52.514;13.192;2023-07-31T05:20:08;3.67;;;3.10;;
9809;SDS011;4944;52.514;13.192;2023-07-31T05:22:35;5.47;;;2.83;;
9809;SDS011;4944;52.514;13.192;2023-07-31T05:25:04;4.23;;;2.83;;
9809;SDS011;4944;52.514;13.192;2023-07-31T05:27:31;2.93;;;2.73;;
9809;SDS011;4944;52.514;13.192;2023-07-31T05:29:58;4.50;;;3.00;;
9809;SDS011;4944;52.514;13.192;2023-07-31T05:32:25;4.70;;;2.50;;
9809;SDS011;4944;52.514;13.192;2023-07-31T05:34:52;4.50;;;2.97;;
9809;SDS011;4944;52.514;13.192;2023-07-31T05:37:19;3.17;;;2.87;;
9809;SDS011;4944;52.514;13.192;2023-07-31T05:39:46;3.43;;;2.50;;
9809;SDS011;4944;52.514;13.192;2023-07-31T05:42:14;4.23;;;2.57;;
9809;SDS011;4944;52.514;13.192;2023-07-31T05:44:41;2.70;;;2.43;;
9809;SDS011;4944;52.514;13.192;2023-07-31T05:47:08;4.43;;;2.80;;
9809;SDS011;4944;52.514;13.192;2023-07-31T05:49:35;4.93;;;2.73;;
9809;SDS011;4944;52.514;13.192;2023-07-31T05:52:02;3.63;;;2.50;;
9809;SDS011;4944;52.514;13.192;2023-07-31T05:54:30;6.47;;;2.63;;
9809;SDS011;4944;52.514;13.192;2023-07-31T05:56:57;3.00;;;2.40;;
9809;SDS011;4944;52.514;13.192;2023-07-31T05:59:26;5.87;;;2.77;;
9809;SDS011;4944;52.514;13.192;2023-07-31T06:01:52;5.33;;;2.47;;
9809;SDS011;4944;52.514;13.192;2023-07-31T06:04:19;4.97;;;2.70;;
9809;SDS011;4944;52.514;13.192;2023-07-31T06:06:46;4.30;;;2.50;;
9809;SDS011;4944;52.514;13.192;2023-07-31T06:09:13;4.00;;;2.40;;
9809;SDS011;4944;52.514;13.192;2023-07-31T06:11:40;3.90;;;2.17;;
9809;SDS011;4944;52.514;13.192;2023-07-31T06:14:07;2.97;;;2.37;;
9809;SDS011;4944;52.514;13.192;2023-07-31T06:16:35;2.80;;;2.40;;
9809;SDS011;4944;52.514;13.192;2023-07-31T06:19:02;2.70;;;2.50;;
9809;SDS011;4944;52.514;13.192;2023-07-31T06:21:29;3.13;;;2.50;;
9809;SDS011;4944;52.514;13.192;2023-07-31T06:23:56;3.50;;;2.50;;
9809;SDS011;4944;52.514;13.192;2023-07-31T06:26:23;2.80;;;2.50;;
9809;SDS011;4944;52.514;13.192;2023-07-31T06:28:50;3.07;;;2.30;;
9809;SDS011;4944;52.514;13.192;2023-07-31T06:31:17;2.97;;;2.10;;
9809;SDS011;4944;52.514;13.192;2023-07-31T06:33:49;2.70;;;2.20;;
9809;SDS011;4944;52.514;13.192;2023-07-31T06:36:16;2.57;;;2.20;;
9809;SDS011;4944;52.514;13.192;2023-07-31T06:38:42;3.20;;;2.43;;
9809;SDS011;4944;52.514;13.192;2023-07-31T06:41:09;3.50;;;2.13;;
9809;SDS011;4944;52.514;13.192;2023-07-31T06:43:36;3.27;;;2.03;;
9809;SDS011;4944;52.514;13.192;2023-07-31T06:46:04;4.33;;;2.30;;
9809;SDS011;4944;52.514;13.192;2023-07-31T06:48:32;3.43;;;2.00;;
9809;SDS011;4944;52.514;13.192;2023-07-31T06:51:00;3.40;;;2.33;;
9809;SDS011;4944;52.514;13.192;2023-07-31T06:53:27;2.83;;;2.20;;
9809;SDS011;4944;52.514;13.192;2023-07-31T06:55:54;2.20;;;2.00;;
9809;SDS011;4944;52.514;13.192;2023-07-31T06:58:21;3.17;;;2.23;;
9809;SDS011;4944;52.514;13.192;2023-07-31T07:00:48;2.93;;;2.33;;
9809;SDS011;4944;52.514;13.192;2023-07-31T07:03:16;2.80;;;2.27;;
9809;SDS011;4944;52.514;13.192;2023-07-31T07:05:44;2.10;;;1.90;;
9809;SDS011;4944;52.514;13.192;2023-07-31T07:08:12;2.30;;;2.03;;
9809;SDS011;4944;52.514;13.192;2023-07-31T07:10:39;3.97;;;2.10;;
9809;SDS011;4944;52.514;13.192;2023-07-31T07:13:06;3.77;;;2.00;;
9809;SDS011;4944;52.514;13.192;2023-07-31T07:15:33;2.40;;;2.10;;
9809;SDS011;4944;52.514;13.192;2023-07-31T07:18:00;3.57;;;2.20;;
9809;SDS011;4944;52.514;13.192;2023-07-31T07:20:28;3.77;;;2.20;;
9809;SDS011;4944;52.514;13.192;2023-07-31T07:22:55;2.40;;;2.20;;
9809;SDS011;4944;52.514;13.192;2023-07-31T07:25:23;4.10;;;2.20;;
9809;SDS011;4944;52.514;13.192;2023-07-31T07:27:50;3.50;;;2.37;;
9809;SDS011;4944;52.514;13.192;2023-07-31T07:30:17;2.97;;;2.40;;
9809;SDS011;4944;52.514;13.192;2023-07-31T07:32:45;2.57;;;2.37;;
9809;SDS011;4944;52.514;13.192;2023-07-31T07:35:12;3.50;;;2.70;;
9809;SDS011;4944;52.514;13.192;2023-07-31T07:37:39;3.97;;;2.40;;
9809;SDS011;4944;52.514;13.192;2023-07-31T07:40:06;3.40;;;2.40;;
9809;SDS011;4944;52.514;13.192;2023-07-31T07:42:35;4.63;;;2.87;;
9809;SDS011;4944;52.514;13.192;2023-07-31T07:45:03;3.90;;;2.57;;
9809;SDS011;4944;52.514;13.192;2023-07-31T07:47:30;3.77;;;2.50;;
9809;SDS011;4944;52.514;13.192;2023-07-31T07:49:57;2.87;;;2.50;;
9809;SDS011;4944;52.514;13.192;2023-07-31T07:52:24;2.67;;;2.33;;
9809;SDS011;4944;52.514;13.192;2023-07-31T07:54:51;3.53;;;2.03;;
9809;SDS011;4944;52.514;13.192;2023-07-31T07:57:18;2.63;;;2.30;;
9809;SDS011;4944;52.514;13.192;2023-07-31T07:59:46;3.80;;;2.27;;
9809;SDS011;4944;52.514;13.192;2023-07-31T08:02:13;3.55;;;2.40;;
9809;SDS011;4944;52.514;13.192;2023-07-31T08:04:40;2.50;;;2.30;;
9809;SDS011;4944;52.514;13.192;2023-07-31T08:07:07;2.60;;;2.00;;
9809;SDS011;4944;52.514;13.192;2023-07-31T08:09:34;2.27;;;2.07;;
9809;SDS011;4944;52.514;13.192;2023-07-31T08:12:01;2.50;;;2.30;;
9809;SDS011;4944;52.514;13.192;2023-07-31T08:14:29;2.80;;;2.40;;
9809;SDS011;4944;52.514;13.192;2023-07-31T08:16:58;2.30;;;2.10;;
9809;SDS011;4944;52.514;13.192;2023-07-31T08:19:29;2.17;;;2.00;;
9809;SDS011;4944;52.514;13.192;2023-07-31T08:21:57;2.83;;;2.53;;
9809;SDS011;4944;52.514;13.192;2023-07-31T08:24:23;2.90;;;1.97;;
9809;SDS011;4944;52.514;13.192;2023-07-31T08:26:50;2.17;;;1.97;;
9809;SDS011;4944;52.514;13.192;2023-07-31T08:29:17;1.93;;;1.83;;
9809;SDS011;4944;52.514;13.192;2023-07-31T08:31:44;2.30;;;2.10;;
9809;SDS011;4944;52.514;13.192;2023-07-31T08:34:12;2.17;;;1.97;;
9809;SDS011;4944;52.514;13.192;2023-07-31T08:36:39;2.33;;;2.00;;
9809;SDS011;4944;52.514;13.192;2023-07-31T08:39:06;2.27;;;2.17;;
9809;SDS011;4944;52.514;13.192;2023-07-31T08:41:37;2.10;;;2.00;;
9809;SDS011;4944;52.514;13.192;2023-07-31T08:44:04;2.80;;;2.13;;
9809;SDS011;4944;52.514;13.192;2023-07-31T08:46:31;2.20;;;2.00;;
9809;SDS011;4944;52.514;13.192;2023-07-31T08:48:59;2.03;;;1.90;;
9809;SDS011;4944;52.514;13.192;2023-07-31T08:51:31;1.93;;;1.70;;
9809;SDS011;4944;52.514;13.192;2023-07-31T08:53:59;2.40;;;1.60;;
9809;SDS011;4944;52.514;13.192;2023-07-31T08:56:29;1.77;;;1.67;;
9809;SDS011;4944;52.514;13.192;2023-07-31T08:58:57;1.50;;;1.33;;
9809;SDS011;4944;52.514;13.192;2023-07-31T09:01:26;1.80;;;1.70;;
9809;SDS011;4944;52.514;13.192;2023-07-31T09:03:56;1.60;;;1.50;;
9809;SDS011;4944;52.514;13.192;2023-07-31T09:06:25;1.40;;;1.40;;
9809;SDS011;4944;52.514;13.192;2023-07-31T09:08:56;1.80;;;1.70;;
9809;SDS011;4944;52.514;13.192;2023-07-31T09:11:23;2.80;;;1.40;;
9809;SDS011;4944;52.514;13.192;2023-07-31T09:13:51;1.93;;;1.40;;
9809;SDS011;4944;52.514;13.192;2023-07-31T09:16:26;1.60;;;1.37;;
9809;SDS011;4944;52.514;13.192;2023-07-31T09:18:56;1.53;;;1.20;;
9809;SDS011;4944;52.514;13.192;2023-07-31T09:21:23;1.23;;;1.13;;
9809;SDS011;4944;52.514;13.192;2023-07-31T09:23:53;1.33;;;1.20;;
9809;SDS011;4944;52.514;13.192;2023-07-31T09:26:31;0.90;;;0.90;;
9809;SDS011;4944;52.514;13.192;2023-07-31T09:29:00;1.37;;;1.17;;
9809;SDS011;4944;52.514;13.192;2023-07-31T09:31:33;1.67;;;1.13;;
9809;SDS011;4944;52.514;13.192;2023-07-31T09:34:05;1.17;;;1.17;;
9809;SDS011;4944;52.514;13.192;2023-07-31T09:36:31;1.27;;;1.27;;
9809;SDS011;4944;52.514;13.192;2023-07-31T09:39:01;1.20;;;1.20;;
9809;SDS011;4944;52.514;13.192;2023-07-31T09:41:29;1.33;;;1.30;;
9809;SDS011;4944;52.514;13.192;2023-07-31T09:43:57;1.17;;;1.17;;
9809;SDS011;4944;52.514;13.192;2023-07-31T09:46:26;1.53;;;1.43;;
9809;SDS011;4944;52.514;13.192;2023-07-31T09:48:53;1.33;;;1.23;;
9809;SDS011;4944;52.514;13.192;2023-07-31T09:51:34;1.53;;;1.43;;
9809;SDS011;4944;52.514;13.192;2023-07-31T09:54:04;1.60;;;1.50;;
9809;SDS011;4944;52.514;13.192;2023-07-31T09:56:41;1.87;;;1.47;;
9809;SDS011;4944;52.514;13.192;2023-07-31T09:59:12;1.30;;;1.23;;
9809;SDS011;4944;52.514;13.192;2023-07-31T10:01:41;1.77;;;1.30;;
9809;SDS011;4944;52.514;13.192;2023-07-31T10:04:09;1.30;;;1.30;;
9809;SDS011;4944;52.514;13.192;2023-07-31T10:06:38;1.47;;;1.40;;
9809;SDS011;4944;52.514;13.192;2023-07-31T10:09:06;1.73;;;1.63;;
9809;SDS011;4944;52.514;13.192;2023-07-31T10:11:38;2.00;;;1.80;;
9809;SDS011;4944;52.514;13.192;2023-07-31T10:14:16;3.57;;;2.23;;
9809;SDS011;4944;52.514;13.192;2023-07-31T10:16:45;2.60;;;2.40;;
9809;SDS011;4944;52.514;13.192;2023-07-31T10:19:13;3.80;;;2.67;;
9809;SDS011;4944;52.514;13.192;2023-07-31T10:21:41;3.43;;;2.70;;
9809;SDS011;4944;52.514;13.192;2023-07-31T10:24:09;3.17;;;2.90;;
9809;SDS011;4944;52.514;13.192;2023-07-31T10:26:37;3.27;;;3.00;;
9809;SDS011;4944;52.514;13.192;2023-07-31T10:29:05;3.60;;;2.67;;
9809;SDS011;4944;52.514;13.192;2023-07-31T10:31:34;6.30;;;2.97;;
9809;SDS011;4944;52.514;13.192;2023-07-31T10:34:02;3.53;;;2.70;;
9809;SDS011;4944;52.514;13.192;2023-07-31T10:36:29;6.23;;;2.93;;
9809;SDS011;4944;52.514;13.192;2023-07-31T10:38:56;3.23;;;2.93;;
9809;SDS011;4944;52.514;13.192;2023-07-31T10:41:28;3.80;;;2.77;;
9809;SDS011;4944;52.514;13.192;2023-07-31T10:43:57;4.87;;;3.20;;
9809;SDS011;4944;52.514;13.192;2023-07-31T10:46:24;3.17;;;2.97;;
9809;SDS011;4944;52.514;13.192;2023-07-31T10:48:58;3.73;;;3.07;;
9809;SDS011;4944;52.514;13.192;2023-07-31T10:51:32;4.57;;;2.93;;
9809;SDS011;4944;52.514;13.192;2023-07-31T10:54:10;3.20;;;2.97;;
9809;SDS011;4944;52.514;13.192;2023-07-31T10:56:37;5.10;;;3.47;;
9809;SDS011;4944;52.514;13.192;2023-07-31T10:59:04;3.83;;;3.20;;
9809;SDS011;4944;52.514;13.192;2023-07-31T11:04:22;5.50;;;3.00;;
9809;SDS011;4944;52.514;13.192;2023-07-31T11:06:57;3.00;;;2.70;;
9809;SDS011;4944;52.514;13.192;2023-07-31T11:09:25;4.60;;;3.03;;
9809;SDS011;4944;52.514;13.192;2023-07-31T11:11:55;3.80;;;3.40;;
9809;SDS011;4944;52.514;13.192;2023-07-31T11:14:22;4.50;;;3.27;;
9809;SDS011;4944;52.514;13.192;2023-07-31T11:16:49;3.50;;;3.20;;
9809;SDS011;4944;52.514;13.192;2023-07-31T11:19:21;3.57;;;3.10;;
9809;SDS011;4944;52.514;13.192;2023-07-31T11:21:49;3.70;;;2.90;;
9809;SDS011;4944;52.514;13.192;2023-07-31T11:24:17;4.10;;;3.03;;
9809;SDS011;4944;52.514;13.192;2023-07-31T11:26:48;4.97;;;3.00;;
9809;SDS011;4944;52.514;13.192;2023-07-31T11:29:16;3.00;;;2.80;;
9809;SDS011;4944;52.514;13.192;2023-07-31T11:31:44;4.50;;;3.10;;
9809;SDS011;4944;52.514;13.192;2023-07-31T11:34:14;3.33;;;3.03;;
9809;SDS011;4944;52.514;13.192;2023-07-31T11:36:47;5.10;;;2.70;;
9809;SDS011;4944;52.514;13.192;2023-07-31T11:39:19;5.63;;;3.17;;
9809;SDS011;4944;52.514;13.192;2023-07-31T11:41:47;3.43;;;3.13;;
9809;SDS011;4944;52.514;13.192;2023-07-31T11:44:14;5.47;;;2.87;;
9809;SDS011;4944;52.514;13.192;2023-07-31T11:46:41;3.23;;;2.93;;
9809;SDS011;4944;52.514;13.192;2023-07-31T11:49:09;4.83;;;2.90;;
9809;SDS011;4944;52.514;13.192;2023-07-31T11:51:36;3.07;;;2.77;;
9809;SDS011;4944;52.514;13.192;2023-07-31T11:54:04;2.97;;;2.77;;
9809;SDS011;4944;52.514;13.192;2023-07-31T11:56:31;2.97;;;2.67;;
9809;SDS011;4944;52.514;13.192;2023-07-31T11:58:59;5.33;;;2.80;;
9809;SDS011;4944;52.514;13.192;2023-07-31T12:01:28;3.87;;;3.00;;
9809;SDS011;4944;52.514;13.192;2023-07-31T12:03:55;3.03;;;2.73;;
9809;SDS011;4944;52.514;13.192;2023-07-31T12:06:32;2.63;;;2.53;;
9809;SDS011;4944;52.514;13.192;2023-07-31T12:09:00;3.50;;;2.80;;
9809;SDS011;4944;52.514;13.192;2023-07-31T12:11:30;3.27;;;2.97;;
9809;SDS011;4944;52.514;13.192;2023-07-31T12:13:57;3.20;;;2.80;;
9809;SDS011;4944;52.514;13.192;2023-07-31T12:16:26;5.37;;;3.73;;
9809;SDS011;4944;52.514;13.192;2023-07-31T12:18:53;4.27;;;2.90;;
9809;SDS011;4944;52.514;13.192;2023-07-31T12:21:20;3.10;;;2.80;;
9809;SDS011;4944;52.514;13.192;2023-07-31T12:23:47;2.93;;;2.60;;
9809;SDS011;4944;52.514;13.192;2023-07-31T12:26:15;3.03;;;2.47;;
9809;SDS011;4944;52.514;13.192;2023-07-31T12:28:45;4.10;;;2.57;;
9809;SDS011;4944;52.514;13.192;2023-07-31T12:31:13;4.60;;;2.77;;
9809;SDS011;4944;52.514;13.192;2023-07-31T12:33:43;3.63;;;2.80;;
9809;SDS011;4944;52.514;13.192;2023-07-31T12:36:11;3.83;;;2.77;;
9809;SDS011;4944;52.514;13.192;2023-07-31T12:38:39;2.73;;;2.50;;
9809;SDS011;4944;52.514;13.192;2023-07-31T12:41:06;4.20;;;2.80;;
9809;SDS011;4944;52.514;13.192;2023-07-31T12:43:33;2.83;;;2.63;;
9809;SDS011;4944;52.514;13.192;2023-07-31T12:46:01;2.80;;;2.60;;
9809;SDS011;4944;52.514;13.192;2023-07-31T12:48:29;2.33;;;2.23;;
9809;SDS011;4944;52.514;13.192;2023-07-31T12:50:56;3.07;;;2.57;;
9809;SDS011;4944;52.514;13.192;2023-07-31T12:53:23;3.80;;;2.93;;
9809;SDS011;4944;52.514;13.192;2023-07-31T12:55:49;5.43;;;2.60;;
9809;SDS011;4944;52.514;13.192;2023-07-31T12:58:17;2.40;;;2.20;;
9809;SDS011;4944;52.514;13.192;2023-07-31T13:00:43;5.13;;;2.70;;
9809;SDS011;4944;52.514;13.192;2023-07-31T13:03:12;3.70;;;2.53;;
9809;SDS011;4944;52.514;13.192;2023-07-31T13:05:39;2.53;;;2.33;;
9809;SDS011;4944;52.514;13.192;2023-07-31T13:08:06;3.37;;;2.60;;
9809;SDS011;4944;52.514;13.192;2023-07-31T13:10:33;2.50;;;2.30;;
9809;SDS011;4944;52.514;13.192;2023-07-31T13:13:00;2.37;;;2.10;;
9809;SDS011;4944;52.514;13.192;2023-07-31T13:15:27;2.20;;;1.97;;
9809;SDS011;4944;52.514;13.192;2023-07-31T13:17:54;3.77;;;2.23;;
9809;SDS011;4944;52.514;13.192;2023-07-31T13:20:23;3.73;;;2.40;;
9809;SDS011;4944;52.514;13.192;2023-07-31T13:22:49;2.30;;;2.10;;
9809;SDS011;4944;52.514;13.192;2023-07-31T13:25:17;2.50;;;2.30;;
9809;SDS011;4944;52.514;13.192;2023-07-31T13:27:44;3.07;;;2.07;;
9809;SDS011;4944;52.514;13.192;2023-07-31T13:30:11;3.57;;;1.97;;
9809;SDS011;4944;52.514;13.192;2023-07-31T13:32:39;3.70;;;2.57;;
9809;SDS011;4944;52.514;13.192;2023-07-31T13:35:08;2.73;;;2.20;;
9809;SDS011;4944;52.514;13.192;2023-07-31T13:37:37;2.90;;;2.70;;
9809;SDS011;4944;52.514;13.192;2023-07-31T13:40:05;3.07;;;2.77;;
9809;SDS011;4944;52.514;13.192;2023-07-31T13:42:33;3.23;;;2.60;;
9809;SDS011;4944;52.514;13.192;2023-07-31T13:45:00;2.70;;;2.50;;
9809;SDS011;4944;52.514;13.192;2023-07-31T13:47:27;3.00;;;2.50;;
9809;SDS011;4944;52.514;13.192;2023-07-31T13:49:54;3.97;;;2.90;;
9809;SDS011;4944;52.514;13.192;2023-07-31T13:52:21;2.53;;;2.33;;
9809;SDS011;4944;52.514;13.192;2023-07-31T13:54:49;3.33;;;2.37;;
9809;SDS011;4944;52.514;13.192;2023-07-31T13:57:16;3.07;;;2.80;;
9809;SDS011;4944;52.514;13.192;2023-07-31T13:59:43;3.17;;;2.67;;
9809;SDS011;4944;52.514;13.192;2023-07-31T14:02:10;3.20;;;2.93;;
9809;SDS011;4944;52.514;13.192;2023-07-31T14:04:38;3.23;;;2.80;;
9809;SDS011;4944;52.514;13.192;2023-07-31T14:07:05;4.33;;;2.83;;
9809;SDS011;4944;52.514;13.192;2023-07-31T14:09:33;3.47;;;3.17;;
9809;SDS011;4944;52.514;13.192;2023-07-31T14:12:01;4.13;;;2.70;;
9809;SDS011;4944;52.514;13.192;2023-07-31T14:14:28;3.20;;;2.83;;
9809;SDS011;4944;52.514;13.192;2023-07-31T14:16:55;5.00;;;2.70;;
9809;SDS011;4944;52.514;13.192;2023-07-31T14:19:22;2.87;;;2.57;;
9809;SDS011;4944;52.514;13.192;2023-07-31T14:21:50;5.93;;;3.00;;
9809;SDS011;4944;52.514;13.192;2023-07-31T14:24:16;3.33;;;2.67;;
9809;SDS011;4944;52.514;13.192;2023-07-31T14:26:43;2.60;;;2.40;;
9809;SDS011;4944;52.514;13.192;2023-07-31T14:29:12;2.90;;;2.63;;
9809;SDS011;4944;52.514;13.192;2023-07-31T14:31:39;3.63;;;2.90;;
9809;SDS011;4944;52.514;13.192;2023-07-31T14:34:06;4.87;;;2.77;;
9809;SDS011;4944;52.514;13.192;2023-07-31T14:36:35;2.80;;;2.60;;
9809;SDS011;4944;52.514;13.192;2023-07-31T14:39:02;2.60;;;2.40;;
9809;SDS011;4944;52.514;13.192;2023-07-31T14:41:29;2.77;;;2.57;;
9809;SDS011;4944;52.514;13.192;2023-07-31T14:43:56;2.77;;;2.50;;
9809;SDS011;4944;52.514;13.192;2023-07-31T14:46:24;2.70;;;2.50;;
9809;SDS011;4944;52.514;13.192;2023-07-31T14:48:51;2.73;;;2.53;;
9809;SDS011;4944;52.514;13.192;2023-07-31T14:51:19;2.70;;;2.40;;
9809;SDS011;4944;52.514;13.192;2023-07-31T14:53:46;3.13;;;2.57;;
9809;SDS011;4944;52.514;13.192;2023-07-31T14:56:13;2.73;;;2.50;;
9809;SDS011;4944;52.514;13.192;2023-07-31T14:58:40;3.40;;;2.50;;
9809;SDS011;4944;52.514;13.192;2023-07-31T15:01:07;3.30;;;2.57;;
9809;SDS011;4944;52.514;13.192;2023-07-31T15:03:35;3.27;;;2.90;;
9809;SDS011;4944;52.514;13.192;2023-07-31T15:06:02;2.27;;;2.13;;
9809;SDS011;4944;52.514;13.192;2023-07-31T15:08:31;2.60;;;2.40;;